createdAt,value
2022-09-10T00:01:19.661Z,16.70
2022-09-10T00:05:20.950Z,16.90
2022-09-10T00:09:22.412Z,16.80
2022-09-10T00:13:23.704Z,16.90
2022-09-10T00:17:25.219Z,17.00
2022-09-10T00:21:29.316Z,17.10
2022-09-10T00:25:31.612Z,17.00
2022-09-10T00:29:32.891Z,16.90
2022-09-10T00:33:33.990Z,17.00
2022-09-10T00:37:35.171Z,17.00
2022-09-10T00:41:39.236Z,16.80
2022-09-10T00:45:43.233Z,16.60
2022-09-10T00:49:48.098Z,16.70
2022-09-10T00:53:50.283Z,16.70
2022-09-10T00:57:55.173Z,16.60
2022-09-10T01:01:58.288Z,16.60
2022-09-10T01:05:59.624Z,16.60
2022-09-10T01:10:04.615Z,16.80
2022-09-10T01:14:31.776Z,17.00
2022-09-10T01:18:51.779Z,17.10
2022-09-10T01:23:25.486Z,17.00
2022-09-10T01:27:47.917Z,16.90
2022-09-10T01:32:08.276Z,16.90
2022-09-10T01:36:20.235Z,16.90
2022-09-10T01:40:27.688Z,16.80
2022-09-10T01:44:49.474Z,16.70
2022-09-10T01:48:59.097Z,16.80
2022-09-10T01:53:33.020Z,16.80
2022-09-10T01:57:54.697Z,16.90
2022-09-10T02:02:00.073Z,16.70
2022-09-10T02:06:03.612Z,16.80
2022-09-10T02:10:07.754Z,16.90
2022-09-10T02:14:08.951Z,16.70
2022-09-10T02:18:10.826Z,16.70
2022-09-10T02:22:12.324Z,16.40
2022-09-10T02:26:14.018Z,16.30
2022-09-10T02:30:16.396Z,16.30
2022-09-10T02:34:17.587Z,16.20
2022-09-10T02:38:20.488Z,16.20
2022-09-10T02:42:22.080Z,16.10
2022-09-10T02:46:23.282Z,16.10
2022-09-10T02:50:24.492Z,16.20
2022-09-10T02:54:25.645Z,16.30
2022-09-10T02:58:26.758Z,16.30
2022-09-10T03:02:27.931Z,16.40
2022-09-10T03:06:29.013Z,16.50
2022-09-10T03:10:31.194Z,16.30
2022-09-10T03:14:32.889Z,16.20
2022-09-10T03:18:34.515Z,16.30
2022-09-10T03:22:36.148Z,16.60
2022-09-10T03:26:37.354Z,16.70
2022-09-10T03:30:39.964Z,16.50
2022-09-10T03:34:41.128Z,16.50
2022-09-10T03:38:42.314Z,16.50
2022-09-10T03:42:43.495Z,16.60
2022-09-10T03:46:46.485Z,16.40
2022-09-10T03:50:50.467Z,16.20
2022-09-10T03:54:51.772Z,16.40
2022-09-10T03:58:52.963Z,16.30
2022-09-10T04:02:54.352Z,16.20
2022-09-10T04:06:55.567Z,16.20
2022-09-10T04:11:01.241Z,15.80
2022-09-10T04:15:03.540Z,15.90
2022-09-10T04:19:04.721Z,15.80
2022-09-10T04:23:05.894Z,16.00
2022-09-10T04:27:07.092Z,16.00
2022-09-10T04:31:08.663Z,16.10
2022-09-10T04:35:10.157Z,16.20
2022-09-10T04:39:11.440Z,16.20
2022-09-10T04:43:12.614Z,16.10
2022-09-10T04:47:14.692Z,16.00
2022-09-10T04:51:17.674Z,16.20
2022-09-10T04:55:19.447Z,16.20
2022-09-10T04:59:20.676Z,16.10
2022-09-10T05:03:22.643Z,16.00
2022-09-10T05:07:23.738Z,16.00
2022-09-10T05:11:24.895Z,16.20
2022-09-10T05:15:26.088Z,16.10
2022-09-10T05:19:27.262Z,16.20
2022-09-10T05:23:28.444Z,16.10
2022-09-10T05:27:29.624Z,16.10
2022-09-10T05:31:30.848Z,16.20
2022-09-10T05:35:32.588Z,16.10
2022-09-10T05:39:34.162Z,16.20
2022-09-10T05:43:36.105Z,16.30
2022-09-10T05:47:37.395Z,16.30
2022-09-10T05:51:38.567Z,16.20
2022-09-10T05:55:39.729Z,16.30
2022-09-10T05:59:40.916Z,16.30
2022-09-10T06:03:42.095Z,16.40
2022-09-10T06:07:44.016Z,16.40
2022-09-10T06:11:48.610Z,16.40
2022-09-10T06:15:49.796Z,16.30
2022-09-10T06:19:51.169Z,16.30
2022-09-10T06:23:55.467Z,16.20
2022-09-10T06:27:56.628Z,16.00
2022-09-10T06:31:58.814Z,16.00
2022-09-10T06:36:01.127Z,16.10
2022-09-10T06:40:02.996Z,16.30
2022-09-10T06:44:04.325Z,16.20
2022-09-10T06:48:37.733Z,16.10
2022-09-10T06:52:10.787Z,16.20
2022-09-10T06:56:13.081Z,16.20
2022-09-10T07:00:14.882Z,16.10
2022-09-10T07:04:16.224Z,16.40
2022-09-10T07:08:19.979Z,16.60
2022-09-10T07:12:21.066Z,16.70
2022-09-10T07:16:25.049Z,16.50
2022-09-10T07:20:27.936Z,16.30
2022-09-10T07:24:29.102Z,16.30
2022-09-10T07:28:31.344Z,16.50
2022-09-10T07:32:32.960Z,16.50
2022-09-10T07:36:34.665Z,16.90
2022-09-10T07:40:35.820Z,17.00
2022-09-10T07:44:37.020Z,17.10
2022-09-10T07:48:40.674Z,17.00
2022-09-10T07:52:41.872Z,16.90
2022-09-10T07:56:43.442Z,17.10
2022-09-10T08:00:44.646Z,17.10
2022-09-10T08:04:46.323Z,17.30
2022-09-10T08:08:47.513Z,17.50
2022-09-10T08:12:49.118Z,17.80
2022-09-10T08:16:50.321Z,18.00
2022-09-10T08:20:54.778Z,18.10
2022-09-10T08:24:55.983Z,18.00
2022-09-10T08:28:57.471Z,18.30
2022-09-10T08:32:58.736Z,18.20
2022-09-10T08:37:02.530Z,18.10
2022-09-10T08:41:31.792Z,18.20
2022-09-10T08:45:34.056Z,18.60
2022-09-10T08:49:39.077Z,18.70
2022-09-10T08:53:52.814Z,18.90
2022-09-10T08:58:03.985Z,18.70
2022-09-10T09:02:47.122Z,18.90
2022-09-10T09:06:33.505Z,18.60
2022-09-10T09:10:38.525Z,18.40
2022-09-10T09:14:55.829Z,18.70
2022-09-10T09:19:29.970Z,18.80
2022-09-10T09:23:44.685Z,19.00
2022-09-10T09:27:41.662Z,19.10
2022-09-10T09:31:46.656Z,18.80
2022-09-10T09:36:00.890Z,18.90
2022-09-10T09:40:14.816Z,19.10
2022-09-10T09:44:25.861Z,18.90
2022-09-10T09:48:31.684Z,19.20
2022-09-10T09:52:34.432Z,18.70
2022-09-10T09:56:39.049Z,18.90
2022-09-10T10:00:40.259Z,19.70
2022-09-10T10:04:57.383Z,19.60
2022-09-10T10:09:08.516Z,19.40
2022-09-10T10:13:13.491Z,19.40
2022-09-10T10:17:36.200Z,19.20
2022-09-10T10:21:37.375Z,19.00
2022-09-10T10:25:42.417Z,18.50
2022-09-10T10:29:53.415Z,18.90
2022-09-10T10:34:12.194Z,19.40
2022-09-10T10:38:32.484Z,19.30
2022-09-10T10:42:40.325Z,19.20
2022-09-10T10:46:48.641Z,19.30
2022-09-10T10:51:14.026Z,19.70
2022-09-10T10:55:28.299Z,19.40
2022-09-10T10:59:36.496Z,19.60
2022-09-10T11:03:44.182Z,19.50
2022-09-10T11:07:46.480Z,19.40
2022-09-10T11:12:03.840Z,19.00
2022-09-10T11:16:15.132Z,18.80
2022-09-10T11:20:39.121Z,18.90
2022-09-10T11:24:44.105Z,19.00
2022-09-10T11:28:49.086Z,20.10
2022-09-10T11:32:59.546Z,20.40
2022-09-10T11:37:16.646Z,20.80
2022-09-10T11:41:27.778Z,20.60
2022-09-10T11:45:32.772Z,20.50
2022-09-10T11:49:50.018Z,19.70
2022-09-10T11:53:53.920Z,20.10
2022-09-10T11:58:04.800Z,20.30
2022-09-10T12:02:18.923Z,20.60
2022-09-10T12:06:29.968Z,21.00
2022-09-10T12:10:52.034Z,20.90
2022-09-10T12:14:53.425Z,21.60
2022-09-10T12:18:56.479Z,21.50
2022-09-10T12:22:59.007Z,20.60
2022-09-10T12:27:02.326Z,20.40
2022-09-10T12:31:03.549Z,21.30
2022-09-10T12:35:25.528Z,21.10
2022-09-10T12:39:27.493Z,21.60
2022-09-10T12:43:44.816Z,21.20
2022-09-10T12:47:49.599Z,20.90
2022-09-10T12:51:55.970Z,21.40
2022-09-10T12:56:06.586Z,21.30
2022-09-10T13:00:32.605Z,21.10
2022-09-10T13:04:36.862Z,20.70
2022-09-10T13:08:41.249Z,21.20
2022-09-10T13:12:43.969Z,21.10
2022-09-10T13:16:45.574Z,20.60
2022-09-10T13:20:47.264Z,21.00
2022-09-10T13:25:01.479Z,21.10
2022-09-10T13:29:12.390Z,21.50
2022-09-10T13:33:17.732Z,21.20
2022-09-10T13:37:31.454Z,21.80
2022-09-10T13:41:36.468Z,21.80
2022-09-10T13:45:40.978Z,21.50
2022-09-10T13:49:52.150Z,21.40
2022-09-10T13:53:56.294Z,21.30
2022-09-10T13:58:07.579Z,21.00
2022-09-10T14:02:08.877Z,21.90
2022-09-10T14:06:21.284Z,22.10
2022-09-10T14:10:22.560Z,21.80
2022-09-10T14:14:28.562Z,21.80
2022-09-10T14:18:34.676Z,21.70
2022-09-10T14:22:37.868Z,21.80
2022-09-10T14:26:39.339Z,21.80
2022-09-10T14:30:41.179Z,21.90
2022-09-10T14:34:42.442Z,22.20
2022-09-10T14:38:46.161Z,22.10
2022-09-10T14:42:49.806Z,21.80
2022-09-10T14:46:58.152Z,21.50
2022-09-10T14:51:17.716Z,21.90
2022-09-10T14:55:19.668Z,21.80
2022-09-10T14:59:35.640Z,21.50
2022-09-10T15:03:40.101Z,21.70
2022-09-10T15:07:42.083Z,21.70
2022-09-10T15:11:59.236Z,21.30
2022-09-10T15:16:01.327Z,21.30
2022-09-10T15:20:03.200Z,21.10
2022-09-10T15:24:05.374Z,20.90
2022-09-10T15:28:06.995Z,20.60
2022-09-10T15:32:08.369Z,20.70
2022-09-10T15:36:10.260Z,20.50
2022-09-10T15:40:11.399Z,20.10
2022-09-10T15:44:12.760Z,19.60
2022-09-10T15:48:14.089Z,19.10
2022-09-10T15:52:15.282Z,19.20
2022-09-10T15:56:17.479Z,19.20
2022-09-10T16:00:19.416Z,19.50
2022-09-10T16:04:20.611Z,19.70
2022-09-10T16:08:21.705Z,20.10
2022-09-10T16:12:23.075Z,20.50
2022-09-10T16:16:27.932Z,20.80
2022-09-10T16:20:29.034Z,21.00
2022-09-10T16:24:31.308Z,21.30
2022-09-10T16:28:33.817Z,21.50
2022-09-10T16:32:34.998Z,21.70
2022-09-10T16:36:37.202Z,21.80
2022-09-10T16:40:38.410Z,21.90
2022-09-10T16:44:40.620Z,22.00
2022-09-10T16:48:42.407Z,21.90
2022-09-10T16:52:43.489Z,21.50
2022-09-10T16:56:46.366Z,21.50
2022-09-10T17:00:49.160Z,21.50
2022-09-10T17:04:50.296Z,21.50
2022-09-10T17:08:54.016Z,21.00
2022-09-10T17:12:55.180Z,20.80
2022-09-10T17:16:57.920Z,20.70
2022-09-10T17:20:59.067Z,20.20
2022-09-10T17:25:00.228Z,20.30
2022-09-10T17:29:05.806Z,20.10
2022-09-10T17:33:06.936Z,20.20
2022-09-10T17:37:08.136Z,19.90
2022-09-10T17:41:12.138Z,19.80
2022-09-10T17:45:13.500Z,19.70
2022-09-10T17:49:15.336Z,19.60
2022-09-10T17:53:17.815Z,19.70
2022-09-10T17:57:19.824Z,19.70
2022-09-10T18:01:23.795Z,19.60
2022-09-10T18:05:25.813Z,19.40
2022-09-10T18:09:27.062Z,19.20
2022-09-10T18:13:28.865Z,19.10
2022-09-10T18:17:30.769Z,19.10
2022-09-10T18:21:34.084Z,18.70
2022-09-10T18:25:35.290Z,18.60
2022-09-10T18:29:38.377Z,18.60
2022-09-10T18:33:40.155Z,18.30
2022-09-10T18:37:41.353Z,18.10
2022-09-10T18:41:42.626Z,18.00
2022-09-10T18:45:43.720Z,17.80
2022-09-10T18:49:45.694Z,17.90
2022-09-10T18:53:47.711Z,17.90
2022-09-10T18:57:48.897Z,17.90
2022-09-10T19:01:52.307Z,17.90
2022-09-10T19:05:53.577Z,17.80
2022-09-10T19:09:54.765Z,17.70
2022-09-10T19:13:56.518Z,17.80
2022-09-10T19:17:57.735Z,17.70
2022-09-10T19:22:02.698Z,17.90
2022-09-10T19:26:04.400Z,18.10
2022-09-10T19:30:06.488Z,18.00
2022-09-10T19:34:09.883Z,18.00
2022-09-10T19:38:36.239Z,18.30
2022-09-10T19:42:15.762Z,18.50
2022-09-10T19:46:19.205Z,18.30
2022-09-10T19:50:23.374Z,18.20
2022-09-10T19:54:24.922Z,17.90
2022-09-10T19:58:26.405Z,18.10
2022-09-10T20:02:27.629Z,17.90
2022-09-10T20:06:29.167Z,18.10
2022-09-10T20:10:30.772Z,18.00
2022-09-10T20:14:31.951Z,17.90
2022-09-10T20:18:34.856Z,17.90
2022-09-10T20:22:38.729Z,17.70
2022-09-10T20:26:40.989Z,17.70
2022-09-10T20:30:43.099Z,17.80
2022-09-10T20:34:44.274Z,17.70
2022-09-10T20:38:46.131Z,17.60
2022-09-10T20:42:47.284Z,17.50
2022-09-10T20:46:49.368Z,17.50
2022-09-10T20:50:52.574Z,17.60
2022-09-10T20:54:54.684Z,17.50
2022-09-10T20:58:56.652Z,17.40
2022-09-10T21:02:57.794Z,17.40
2022-09-10T21:06:58.868Z,17.50
2022-09-10T21:11:04.995Z,17.60
2022-09-10T21:15:07.154Z,17.60
2022-09-10T21:19:13.506Z,17.60
2022-09-10T21:23:15.109Z,17.60
2022-09-10T21:27:16.316Z,17.60
2022-09-10T21:31:17.541Z,17.70
2022-09-10T21:35:18.702Z,17.50
2022-09-10T21:39:19.901Z,17.50
2022-09-10T21:43:21.178Z,17.60
2022-09-10T21:47:22.472Z,17.40
2022-09-10T21:51:23.777Z,17.30
2022-09-10T21:55:24.972Z,17.50
2022-09-10T21:59:26.383Z,17.50
2022-09-10T22:03:30.522Z,17.30
2022-09-10T22:07:31.675Z,17.50
2022-09-10T22:11:36.103Z,17.40
2022-09-10T22:15:39.335Z,17.40
2022-09-10T22:19:40.630Z,17.20
2022-09-10T22:23:42.620Z,17.20
2022-09-10T22:27:43.697Z,17.10
2022-09-10T22:31:45.747Z,17.20
2022-09-10T22:35:46.975Z,17.20
2022-09-10T22:39:48.226Z,17.10
2022-09-10T22:43:49.992Z,17.00
2022-09-10T22:47:51.203Z,17.20
2022-09-10T22:51:52.405Z,17.30
2022-09-10T22:56:13.772Z,17.30
2022-09-10T23:00:14.885Z,17.50
2022-09-10T23:04:16.276Z,17.50
2022-09-10T23:08:17.562Z,17.60
2022-09-10T23:12:20.659Z,17.60
2022-09-10T23:16:26.896Z,17.60
2022-09-10T23:20:28.070Z,17.60
2022-09-10T23:24:29.263Z,17.50
2022-09-10T23:28:31.066Z,17.50
2022-09-10T23:32:32.275Z,17.40
2022-09-10T23:36:36.256Z,17.50
2022-09-10T23:40:37.427Z,17.50
2022-09-10T23:44:38.718Z,17.50
2022-09-10T23:48:45.131Z,17.50
2022-09-10T23:52:46.305Z,17.30
2022-09-10T23:56:47.465Z,17.30
